sensor_id;sensor_type;location;lat;lon;timestamp;pressure;altitude;pressure_sealevel;temperature;humidity
78665;BME280;67981;51.022;-2.870;2023-09-19T00:01:06;100431.34;;;12.15;100.00
78665;BME280;67981;51.022;-2.870;2023-09-19T00:03:37;100431.38;;;12.17;100.00
78665;BME280;67981;51.022;-2.870;2023-09-19T00:06:03;100459.13;;;12.27;100.00
78665;BME280;67981;51.022;-2.870;2023-09-19T00:08:41;100442.75;;;12.28;100.00
78665;BME280;67981;51.022;-2.870;2023-09-19T00:11:09;100455.91;;;12.40;100.00
78665;BME280;67981;51.022;-2.870;2023-09-19T00:13:36;100452.38;;;12.36;100.00
78665;BME280;67981;51.022;-2.870;2023-09-19T00:16:08;100459.31;;;12.39;100.00
78665;BME280;67981;51.022;-2.870;2023-09-19T00:18:34;100455.84;;;12.35;100.00
78665;BME280;67981;51.022;-2.870;2023-09-19T00:21:00;100453.09;;;12.28;100.00
78665;BME280;67981;51.022;-2.870;2023-09-19T00:23:26;100432.09;;;12.08;100.00
78665;BME280;67981;51.022;-2.870;2023-09-19T00:25:52;100449.53;;;12.20;100.00
78665;BME280;67981;51.022;-2.870;2023-09-19T00:28:18;100444.34;;;12.20;100.00
78665;BME280;67981;51.022;-2.870;2023-09-19T00:30:45;100440.88;;;12.19;100.00
78665;BME280;67981;51.022;-2.870;2023-09-19T00:33:20;100444.31;;;12.17;100.00
78665;BME280;67981;51.022;-2.870;2023-09-19T00:35:50;100447.75;;;12.14;100.00
78665;BME280;67981;51.022;-2.870;2023-09-19T00:38:16;100445.19;;;12.16;100.00
78665;BME280;67981;51.022;-2.870;2023-09-19T00:40:45;100446.84;;;12.14;100.00
78665;BME280;67981;51.022;-2.870;2023-09-19T00:43:11;100454.63;;;12.14;100.00
78665;BME280;67981;51.022;-2.870;2023-09-19T00:45:38;100463.25;;;12.14;100.00
78665;BME280;67981;51.022;-2.870;2023-09-19T00:48:04;100466.66;;;12.13;100.00
78665;BME280;67981;51.022;-2.870;2023-09-19T00:50:34;100471.81;;;12.10;100.00
78665;BME280;67981;51.022;-2.870;2023-09-19T00:53:00;100475.25;;;12.09;100.00
78665;BME280;67981;51.022;-2.870;2023-09-19T00:55:26;100478.59;;;12.04;100.00
78665;BME280;67981;51.022;-2.870;2023-09-19T00:57:55;100459.53;;;11.99;100.00
78665;BME280;67981;51.022;-2.870;2023-09-19T01:00:21;100456.81;;;11.90;100.00
78665;BME280;67981;51.022;-2.870;2023-09-19T01:02:48;100468.19;;;12.01;100.00
78665;BME280;67981;51.022;-2.870;2023-09-19T01:05:14;100468.19;;;12.01;100.00
78665;BME280;67981;51.022;-2.870;2023-09-19T01:07:40;100460.50;;;12.05;100.00
78665;BME280;67981;51.022;-2.870;2023-09-19T01:10:11;100456.19;;;12.04;100.00
78665;BME280;67981;51.022;-2.870;2023-09-19T01:15:28;100470.06;;;12.09;100.00
78665;BME280;67981;51.022;-2.870;2023-09-19T01:23:20;100460.69;;;12.16;100.00
78665;BME280;67981;51.022;-2.870;2023-09-19T01:28:53;100460.78;;;12.22;100.00
78665;BME280;67981;51.022;-2.870;2023-09-19T01:31:23;100448.66;;;12.19;100.00
78665;BME280;67981;51.022;-2.870;2023-09-19T01:34:03;100453.03;;;12.23;100.00
78665;BME280;67981;51.022;-2.870;2023-09-19T01:36:34;100458.25;;;12.26;100.00
78665;BME280;67981;51.022;-2.870;2023-09-19T01:39:10;100459.94;;;12.24;100.00
78665;BME280;67981;51.022;-2.870;2023-09-19T01:42:07;100465.31;;;12.35;100.00
78665;BME280;67981;51.022;-2.870;2023-09-19T01:44:44;100465.34;;;12.38;100.00
78665;BME280;67981;51.022;-2.870;2023-09-19T01:47:33;100439.38;;;12.30;100.00
78665;BME280;67981;51.022;-2.870;2023-09-19T01:50:32;100476.75;;;12.50;100.00
78665;BME280;67981;51.022;-2.870;2023-09-19T01:53:06;100460.44;;;12.56;100.00
78665;BME280;67981;51.022;-2.870;2023-09-19T01:55:37;100463.94;;;12.58;100.00
78665;BME280;67981;51.022;-2.870;2023-09-19T01:58:14;100447.53;;;12.59;100.00
78665;BME280;67981;51.022;-2.870;2023-09-19T02:00:42;100437.19;;;12.60;100.00
78665;BME280;67981;51.022;-2.870;2023-09-19T02:03:09;100447.69;;;12.71;100.00
78665;BME280;67981;51.022;-2.870;2023-09-19T02:05:35;100430.38;;;12.65;100.00
78665;BME280;67981;51.022;-2.870;2023-09-19T02:08:00;100427.88;;;12.74;100.00
78665;BME280;67981;51.022;-2.870;2023-09-19T02:10:26;100439.19;;;12.81;100.00
78665;BME280;67981;51.022;-2.870;2023-09-19T02:12:51;100424.50;;;12.78;100.00
78665;BME280;67981;51.022;-2.870;2023-09-19T02:15:17;100421.94;;;12.80;100.00
78665;BME280;67981;51.022;-2.870;2023-09-19T02:17:43;100425.47;;;12.87;100.00
78665;BME280;67981;51.022;-2.870;2023-09-19T02:20:10;100415.00;;;12.80;100.00
78665;BME280;67981;51.022;-2.870;2023-09-19T02:22:40;100411.63;;;12.83;100.00
78665;BME280;67981;51.022;-2.870;2023-09-19T02:25:06;100406.47;;;12.86;100.00
78665;BME280;67981;51.022;-2.870;2023-09-19T02:27:32;100397.81;;;12.85;100.00
78665;BME280;67981;51.022;-2.870;2023-09-19T02:29:57;100403.94;;;12.92;100.00
78665;BME280;67981;51.022;-2.870;2023-09-19T02:32:23;100380.50;;;12.80;100.00
78665;BME280;67981;51.022;-2.870;2023-09-19T02:34:48;100402.19;;;12.88;100.00
78665;BME280;67981;51.022;-2.870;2023-09-19T02:37:16;100410.91;;;12.95;100.00
78665;BME280;67981;51.022;-2.870;2023-09-19T02:39:44;100406.53;;;12.94;100.00
78665;BME280;67981;51.022;-2.870;2023-09-19T02:42:09;100402.16;;;12.87;100.00
78665;BME280;67981;51.022;-2.870;2023-09-19T02:44:34;100403.09;;;12.92;100.00
78665;BME280;67981;51.022;-2.870;2023-09-19T02:47:00;100406.63;;;12.98;100.00
78665;BME280;67981;51.022;-2.870;2023-09-19T02:49:26;100402.28;;;12.99;100.00
78665;BME280;67981;51.022;-2.870;2023-09-19T02:51:51;100404.03;;;12.97;100.00
78665;BME280;67981;51.022;-2.870;2023-09-19T02:54:17;100388.47;;;12.97;100.00
78665;BME280;67981;51.022;-2.870;2023-09-19T02:56:43;100391.88;;;12.93;100.00
78665;BME280;67981;51.022;-2.870;2023-09-19T02:59:08;100395.41;;;12.99;100.00
78665;BME280;67981;51.022;-2.870;2023-09-19T03:01:35;100380.72;;;12.97;100.00
78665;BME280;67981;51.022;-2.870;2023-09-19T03:04:02;100387.72;;;13.05;100.00
78665;BME280;67981;51.022;-2.870;2023-09-19T03:06:28;100369.56;;;13.04;100.00
78665;BME280;67981;51.022;-2.870;2023-09-19T03:08:56;100354.97;;;13.10;100.00
78665;BME280;67981;51.022;-2.870;2023-09-19T03:11:22;100346.38;;;13.13;100.00
78665;BME280;67981;51.022;-2.870;2023-09-19T03:13:54;100342.91;;;13.14;100.00
78665;BME280;67981;51.022;-2.870;2023-09-19T03:16:20;100342.13;;;13.21;100.00
78665;BME280;67981;51.022;-2.870;2023-09-19T03:18:49;100322.22;;;13.17;100.00
78665;BME280;67981;51.022;-2.870;2023-09-19T03:21:16;100323.13;;;13.22;100.00
78665;BME280;67981;51.022;-2.870;2023-09-19T03:23:42;100320.56;;;13.25;100.00
78665;BME280;67981;51.022;-2.870;2023-09-19T03:26:10;100311.09;;;13.25;100.00
78665;BME280;67981;51.022;-2.870;2023-09-19T03:28:37;100288.59;;;13.24;100.00
78665;BME280;67981;51.022;-2.870;2023-09-19T03:31:04;100278.25;;;13.26;100.00
78665;BME280;67981;51.022;-2.870;2023-09-19T03:33:30;100266.13;;;13.20;100.00
78665;BME280;67981;51.022;-2.870;2023-09-19T03:36:00;100269.59;;;13.22;100.00
78665;BME280;67981;51.022;-2.870;2023-09-19T03:38:28;100256.56;;;13.15;100.00
78665;BME280;67981;51.022;-2.870;2023-09-19T03:40:54;100262.66;;;13.23;100.00
78665;BME280;67981;51.022;-2.870;2023-09-19T03:43:20;100248.84;;;13.19;100.00
78665;BME280;67981;51.022;-2.870;2023-09-19T03:45:45;100260.06;;;13.23;100.00
78665;BME280;67981;51.022;-2.870;2023-09-19T03:48:12;100260.16;;;13.30;100.00
78665;BME280;67981;51.022;-2.870;2023-09-19T03:50:38;100255.88;;;13.35;100.00
78665;BME280;67981;51.022;-2.870;2023-09-19T03:53:03;100259.34;;;13.40;100.00
78665;BME280;67981;51.022;-2.870;2023-09-19T03:55:29;100267.19;;;13.43;100.00
78665;BME280;67981;51.022;-2.870;2023-09-19T03:57:57;100268.91;;;13.44;100.00
78665;BME280;67981;51.022;-2.870;2023-09-19T04:00:23;100269.78;;;13.46;100.00
78665;BME280;67981;51.022;-2.870;2023-09-19T04:02:52;100264.53;;;13.40;100.00
78665;BME280;67981;51.022;-2.870;2023-09-19T04:05:18;100268.00;;;13.39;100.00
78665;BME280;67981;51.022;-2.870;2023-09-19T04:07:43;100274.13;;;13.49;100.00
78665;BME280;67981;51.022;-2.870;2023-09-19T04:10:09;100278.44;;;13.48;100.00
78665;BME280;67981;51.022;-2.870;2023-09-19T04:12:37;100275.00;;;13.48;100.00
78665;BME280;67981;51.022;-2.870;2023-09-19T04:15:04;100267.22;;;13.48;100.00
78665;BME280;67981;51.022;-2.870;2023-09-19T04:17:30;100280.19;;;13.49;100.00
78665;BME280;67981;51.022;-2.870;2023-09-19T04:19:55;100268.88;;;13.41;100.00
78665;BME280;67981;51.022;-2.870;2023-09-19T04:22:20;100267.13;;;13.37;100.00
78665;BME280;67981;51.022;-2.870;2023-09-19T04:24:46;100267.09;;;13.36;100.00
78665;BME280;67981;51.022;-2.870;2023-09-19T04:27:11;100274.91;;;13.39;100.00
78665;BME280;67981;51.022;-2.870;2023-09-19T04:29:40;100270.59;;;13.38;100.00
78665;BME280;67981;51.022;-2.870;2023-09-19T04:32:07;100273.22;;;13.42;100.00
78665;BME280;67981;51.022;-2.870;2023-09-19T04:34:36;100274.13;;;13.49;100.00
78665;BME280;67981;51.022;-2.870;2023-09-19T04:37:01;100267.28;;;13.58;100.00
78665;BME280;67981;51.022;-2.870;2023-09-19T04:39:27;100272.56;;;13.72;100.00
78665;BME280;67981;51.022;-2.870;2023-09-19T04:41:53;100267.41;;;13.76;100.00
78665;BME280;67981;51.022;-2.870;2023-09-19T04:44:19;100282.19;;;13.86;100.00
78665;BME280;67981;51.022;-2.870;2023-09-19T04:46:44;100267.50;;;13.88;100.00
78665;BME280;67981;51.022;-2.870;2023-09-19T04:49:11;100268.34;;;13.92;100.00
78665;BME280;67981;51.022;-2.870;2023-09-19T04:51:38;100268.41;;;13.96;100.00
78665;BME280;67981;51.022;-2.870;2023-09-19T04:54:03;100258.88;;;13.98;100.00
78665;BME280;67981;51.022;-2.870;2023-09-19T04:56:29;100267.56;;;14.03;100.00
78665;BME280;67981;51.022;-2.870;2023-09-19T04:58:55;100258.06;;;14.02;100.00
78665;BME280;67981;51.022;-2.870;2023-09-19T05:01:20;100255.50;;;14.10;100.00
78665;BME280;67981;51.022;-2.870;2023-09-19T05:03:48;100256.38;;;14.16;100.00
78665;BME280;67981;51.022;-2.870;2023-09-19T05:06:20;100236.47;;;14.12;100.00
78665;BME280;67981;51.022;-2.870;2023-09-19T05:08:47;100228.66;;;14.09;100.00
78665;BME280;67981;51.022;-2.870;2023-09-19T05:11:17;100239.09;;;14.21;100.00
78665;BME280;67981;51.022;-2.870;2023-09-19T05:13:42;100192.28;;;13.94;100.00
78665;BME280;67981;51.022;-2.870;2023-09-19T05:16:08;100220.94;;;14.17;100.00
78665;BME280;67981;51.022;-2.870;2023-09-19T05:18:35;100218.34;;;14.21;100.00
78665;BME280;67981;51.022;-2.870;2023-09-19T05:21:02;100240.03;;;14.31;100.00
78665;BME280;67981;51.022;-2.870;2023-09-19T05:23:27;100219.22;;;14.22;100.00
78665;BME280;67981;51.022;-2.870;2023-09-19T05:25:53;100242.66;;;14.36;100.00
78665;BME280;67981;51.022;-2.870;2023-09-19T05:28:20;100231.38;;;14.34;100.00
78665;BME280;67981;51.022;-2.870;2023-09-19T05:30:45;100235.75;;;14.38;100.00
78665;BME280;67981;51.022;-2.870;2023-09-19T05:33:11;100218.44;;;14.37;100.00
78665;BME280;67981;51.022;-2.870;2023-09-19T05:35:37;100211.50;;;14.34;100.00
78665;BME280;67981;51.022;-2.870;2023-09-19T05:38:05;100203.72;;;14.36;100.00
78665;BME280;67981;51.022;-2.870;2023-09-19T05:40:34;100195.09;;;14.43;100.00
78665;BME280;67981;51.022;-2.870;2023-09-19T05:43:00;100190.78;;;14.45;100.00
78665;BME280;67981;51.022;-2.870;2023-09-19T05:45:25;100179.50;;;14.46;100.00
78665;BME280;67981;51.022;-2.870;2023-09-19T05:47:53;100162.22;;;14.43;100.00
78665;BME280;67981;51.022;-2.870;2023-09-19T05:50:29;100153.56;;;14.50;100.00
78665;BME280;67981;51.022;-2.870;2023-09-19T05:52:55;100164.81;;;14.55;100.00
78665;BME280;67981;51.022;-2.870;2023-09-19T05:55:21;100157.88;;;14.47;100.00
78665;BME280;67981;51.022;-2.870;2023-09-19T05:57:51;100145.75;;;14.44;100.00
78665;BME280;67981;51.022;-2.870;2023-09-19T06:00:26;100146.63;;;14.46;100.00
78665;BME280;67981;51.022;-2.870;2023-09-19T06:02:57;100131.91;;;14.44;100.00
78665;BME280;67981;51.022;-2.870;2023-09-19T06:05:26;100134.53;;;14.50;100.00
78665;BME280;67981;51.022;-2.870;2023-09-19T06:07:53;100136.25;;;14.60;100.00
78665;BME280;67981;51.022;-2.870;2023-09-19T06:10:19;100118.94;;;14.60;100.00
78665;BME280;67981;51.022;-2.870;2023-09-19T06:12:46;100118.94;;;14.62;100.00
78665;BME280;67981;51.022;-2.870;2023-09-19T06:15:13;100119.81;;;14.76;100.00
78665;BME280;67981;51.022;-2.870;2023-09-19T06:17:48;100114.63;;;14.73;100.00
78665;BME280;67981;51.022;-2.870;2023-09-19T06:20:14;100123.28;;;14.76;100.00
78665;BME280;67981;51.022;-2.870;2023-09-19T06:22:41;100128.47;;;14.85;100.00
78665;BME280;67981;51.022;-2.870;2023-09-19T06:25:11;100116.34;;;14.81;100.00
78665;BME280;67981;51.022;-2.870;2023-09-19T06:27:39;100123.28;;;14.84;100.00
78665;BME280;67981;51.022;-2.870;2023-09-19T06:30:08;100109.41;;;14.92;100.00
78665;BME280;67981;51.022;-2.870;2023-09-19T06:32:34;100113.75;;;14.90;100.00
78665;BME280;67981;51.022;-2.870;2023-09-19T06:35:00;100102.50;;;14.96;100.00
78665;BME280;67981;51.022;-2.870;2023-09-19T06:37:29;100095.53;;;14.95;100.00
78665;BME280;67981;51.022;-2.870;2023-09-19T06:39:55;100092.06;;;15.05;100.00
78665;BME280;67981;51.022;-2.870;2023-09-19T06:42:21;100088.63;;;15.10;100.00
78665;BME280;67981;51.022;-2.870;2023-09-19T06:44:48;100084.28;;;15.11;100.00
78665;BME280;67981;51.022;-2.870;2023-09-19T06:47:13;100054.81;;;15.01;100.00
78665;BME280;67981;51.022;-2.870;2023-09-19T06:49:41;100073.88;;;15.14;100.00
78665;BME280;67981;51.022;-2.870;2023-09-19T06:52:09;100055.72;;;15.00;100.00
78665;BME280;67981;51.022;-2.870;2023-09-19T06:54:34;100067.81;;;15.12;100.00
78665;BME280;67981;51.022;-2.870;2023-09-19T06:57:01;100076.47;;;15.18;100.00
78665;BME280;67981;51.022;-2.870;2023-09-19T06:59:26;100068.69;;;15.15;100.00
78665;BME280;67981;51.022;-2.870;2023-09-19T07:01:51;100091.19;;;15.27;100.00
78665;BME280;67981;51.022;-2.870;2023-09-19T07:04:18;100063.50;;;15.14;100.00
78665;BME280;67981;51.022;-2.870;2023-09-19T07:06:49;100072.13;;;15.22;100.00
78665;BME280;67981;51.022;-2.870;2023-09-19T07:09:15;100078.16;;;15.37;100.00
78665;BME280;67981;51.022;-2.870;2023-09-19T07:11:40;100048.72;;;15.23;100.00
78665;BME280;67981;51.022;-2.870;2023-09-19T07:14:05;100061.66;;;15.37;100.00
78665;BME280;67981;51.022;-2.870;2023-09-19T07:16:31;100051.28;;;15.44;100.00
78665;BME280;67981;51.022;-2.870;2023-09-19T07:18:56;100046.94;;;15.43;100.00
78665;BME280;67981;51.022;-2.870;2023-09-19T07:21:23;100030.50;;;15.43;100.00
78665;BME280;67981;51.022;-2.870;2023-09-19T07:23:48;100051.28;;;15.49;100.00
78665;BME280;67981;51.022;-2.870;2023-09-19T07:26:15;100043.47;;;15.50;100.00
78665;BME280;67981;51.022;-2.870;2023-09-19T07:28:40;100027.88;;;15.37;100.00
78665;BME280;67981;51.022;-2.870;2023-09-19T07:31:06;100048.69;;;15.43;100.00
78665;BME280;67981;51.022;-2.870;2023-09-19T07:33:35;100048.69;;;15.47;100.00
78665;BME280;67981;51.022;-2.870;2023-09-19T07:36:01;100029.63;;;15.32;100.00
78665;BME280;67981;51.022;-2.870;2023-09-19T07:38:26;100058.22;;;15.45;100.00
78665;BME280;67981;51.022;-2.870;2023-09-19T07:40:52;100051.31;;;15.43;100.00
78665;BME280;67981;51.022;-2.870;2023-09-19T07:43:17;100053.91;;;15.43;100.00
78665;BME280;67981;51.022;-2.870;2023-09-19T07:45:43;100036.53;;;15.43;100.00
78665;BME280;67981;51.022;-2.870;2023-09-19T07:48:08;100020.06;;;15.35;100.00
78665;BME280;67981;51.022;-2.870;2023-09-19T07:50:39;100046.94;;;15.46;100.00
78665;BME280;67981;51.022;-2.870;2023-09-19T07:53:06;100045.19;;;15.48;100.00
78665;BME280;67981;51.022;-2.870;2023-09-19T07:55:32;100034.84;;;15.41;100.00
78665;BME280;67981;51.022;-2.870;2023-09-19T07:57:59;100045.22;;;15.35;100.00
78665;BME280;67981;51.022;-2.870;2023-09-19T08:00:24;100041.78;;;15.28;100.00
78665;BME280;67981;51.022;-2.870;2023-09-19T08:02:50;100046.97;;;15.33;100.00
78665;BME280;67981;51.022;-2.870;2023-09-19T08:05:17;100042.63;;;15.30;100.00
78665;BME280;67981;51.022;-2.870;2023-09-19T08:07:45;100053.91;;;15.31;100.00
78665;BME280;67981;51.022;-2.870;2023-09-19T08:10:15;100064.28;;;15.32;100.00
78665;BME280;67981;51.022;-2.870;2023-09-19T08:12:42;100069.47;;;15.37;100.00
78665;BME280;67981;51.022;-2.870;2023-09-19T08:15:20;100075.53;;;15.37;100.00
78665;BME280;67981;51.022;-2.870;2023-09-19T08:17:47;100073.84;;;15.39;100.00
78665;BME280;67981;51.022;-2.870;2023-09-19T08:20:13;100091.97;;;15.53;100.00
78665;BME280;67981;51.022;-2.870;2023-09-19T08:22:53;100090.22;;;15.61;100.00
78665;BME280;67981;51.022;-2.870;2023-09-19T08:25:22;100075.50;;;15.58;100.00
78665;BME280;67981;51.022;-2.870;2023-09-19T08:27:48;100079.81;;;15.66;100.00
78665;BME280;67981;51.022;-2.870;2023-09-19T08:30:22;100084.16;;;15.65;100.00
78665;BME280;67981;51.022;-2.870;2023-09-19T08:32:57;100076.34;;;15.62;100.00
78665;BME280;67981;51.022;-2.870;2023-09-19T08:35:23;100086.72;;;15.68;100.00
78665;BME280;67981;51.022;-2.870;2023-09-19T08:37:49;100080.66;;;15.66;100.00
78665;BME280;67981;51.022;-2.870;2023-09-19T08:40:14;100092.78;;;15.72;100.00
78665;BME280;67981;51.022;-2.870;2023-09-19T08:42:52;100092.81;;;15.70;100.00
78665;BME280;67981;51.022;-2.870;2023-09-19T08:45:19;100102.34;;;15.67;100.00
78665;BME280;67981;51.022;-2.870;2023-09-19T08:50:51;100104.06;;;15.69;100.00
78665;BME280;67981;51.022;-2.870;2023-09-19T08:53:42;100104.91;;;15.76;100.00
78665;BME280;67981;51.022;-2.870;2023-09-19T08:56:12;100099.69;;;15.79;100.00
78665;BME280;67981;51.022;-2.870;2023-09-19T08:58:47;100104.03;;;15.80;100.00
78665;BME280;67981;51.022;-2.870;2023-09-19T09:01:17;100096.19;;;15.87;100.00
78665;BME280;67981;51.022;-2.870;2023-09-19T09:03:54;100093.53;;;15.92;100.00
78665;BME280;67981;51.022;-2.870;2023-09-19T09:06:23;100098.75;;;15.96;100.00
78665;BME280;67981;51.022;-2.870;2023-09-19T09:08:52;100095.25;;;16.00;100.00
78665;BME280;67981;51.022;-2.870;2023-09-19T09:11:18;100104.81;;;15.95;100.00
78665;BME280;67981;51.022;-2.870;2023-09-19T09:13:45;100103.84;;;16.13;100.00
78665;BME280;67981;51.022;-2.870;2023-09-19T09:16:11;100107.34;;;16.09;100.00
78665;BME280;67981;51.022;-2.870;2023-09-19T09:18:38;100099.56;;;16.07;100.00
78665;BME280;67981;51.022;-2.870;2023-09-19T09:21:04;100106.47;;;16.10;100.00
78665;BME280;67981;51.022;-2.870;2023-09-19T09:23:30;100108.16;;;16.20;100.00
78665;BME280;67981;51.022;-2.870;2023-09-19T09:25:57;100112.44;;;16.24;100.00
78665;BME280;67981;51.022;-2.870;2023-09-19T09:28:26;100107.25;;;16.24;100.00
78665;BME280;67981;51.022;-2.870;2023-09-19T09:30:52;100101.22;;;16.20;100.00
78665;BME280;67981;51.022;-2.870;2023-09-19T09:33:17;100111.56;;;16.29;100.00
78665;BME280;67981;51.022;-2.870;2023-09-19T09:35:50;100114.97;;;16.39;100.00
78665;BME280;67981;51.022;-2.870;2023-09-19T09:38:23;100114.06;;;16.44;100.00
78665;BME280;67981;51.022;-2.870;2023-09-19T09:40:59;100116.69;;;16.46;100.00
78665;BME280;67981;51.022;-2.870;2023-09-19T09:43:27;100110.63;;;16.42;100.00
78665;BME280;67981;51.022;-2.870;2023-09-19T09:46:09;100106.25;;;16.49;100.00
78665;BME280;67981;51.022;-2.870;2023-09-19T09:48:48;100100.19;;;16.48;100.00
78665;BME280;67981;51.022;-2.870;2023-09-19T09:51:40;100116.63;;;16.55;100.00
78665;BME280;67981;51.022;-2.870;2023-09-19T09:56:55;100109.59;;;16.66;100.00
78665;BME280;67981;51.022;-2.870;2023-09-19T10:02:29;100095.69;;;16.64;100.00
78665;BME280;67981;51.022;-2.870;2023-09-19T10:04:58;100097.44;;;16.66;100.00
78665;BME280;67981;51.022;-2.870;2023-09-19T10:07:30;100110.41;;;16.72;100.00
78665;BME280;67981;51.022;-2.870;2023-09-19T10:10:36;100101.72;;;16.70;100.00
78665;BME280;67981;51.022;-2.870;2023-09-19T10:13:10;100110.41;;;16.71;100.00
78665;BME280;67981;51.022;-2.870;2023-09-19T10:15:42;100105.22;;;16.69;100.00
78665;BME280;67981;51.022;-2.870;2023-09-19T10:18:23;100100.91;;;16.67;100.00
78665;BME280;67981;51.022;-2.870;2023-09-19T10:20:49;100117.13;;;17.02;100.00
78665;BME280;67981;51.022;-2.870;2023-09-19T10:23:17;100103.38;;;16.80;100.00
78665;BME280;67981;51.022;-2.870;2023-09-19T10:25:49;100106.88;;;16.79;100.00
78665;BME280;67981;51.022;-2.870;2023-09-19T10:28:17;100109.50;;;16.79;100.00
78665;BME280;67981;51.022;-2.870;2023-09-19T10:30:47;100096.44;;;16.82;100.00
78665;BME280;67981;51.022;-2.870;2023-09-19T10:33:19;100115.44;;;16.93;100.00
78665;BME280;67981;51.022;-2.870;2023-09-19T10:35:50;100123.19;;;16.99;100.00
78665;BME280;67981;51.022;-2.870;2023-09-19T10:38:26;100134.44;;;17.05;100.00
78665;BME280;67981;51.022;-2.870;2023-09-19T10:40:56;100114.53;;;17.01;100.00
78665;BME280;67981;51.022;-2.870;2023-09-19T10:43:35;100116.94;;;17.22;100.00
78665;BME280;67981;51.022;-2.870;2023-09-19T10:46:07;100110.03;;;17.15;100.00
78665;BME280;67981;51.022;-2.870;2023-09-19T10:48:34;100102.25;;;17.12;100.00
78665;BME280;67981;51.022;-2.870;2023-09-19T10:53:39;100122.13;;;17.23;100.00
78665;BME280;67981;51.022;-2.870;2023-09-19T10:56:08;100116.88;;;17.26;100.00
78665;BME280;67981;51.022;-2.870;2023-09-19T10:58:40;100121.16;;;17.32;100.00
78665;BME280;67981;51.022;-2.870;2023-09-19T11:01:10;100129.81;;;17.35;100.00
78665;BME280;67981;51.022;-2.870;2023-09-19T11:03:43;100113.34;;;17.29;100.00
78665;BME280;67981;51.022;-2.870;2023-09-19T11:06:12;100128.97;;;17.32;100.00
78665;BME280;67981;51.022;-2.870;2023-09-19T11:08:55;100118.53;;;17.33;100.00
78665;BME280;67981;51.022;-2.870;2023-09-19T11:30:47;100064.59;;;18.06;100.00
78665;BME280;67981;51.022;-2.870;2023-09-19T11:33:22;100053.22;;;18.09;100.00
78665;BME280;67981;51.022;-2.870;2023-09-19T11:44:32;99995.31;;;18.41;100.00
78665;BME280;67981;51.022;-2.870;2023-09-19T11:46:55;99999.50;;;18.51;100.00
78665;BME280;67981;51.022;-2.870;2023-09-19T11:49:28;99971.69;;;18.47;100.00
78665;BME280;67981;51.022;-2.870;2023-09-19T11:51:56;99987.19;;;18.57;100.00
78665;BME280;67981;51.022;-2.870;2023-09-19T11:54:22;99986.25;;;18.60;100.00
78665;BME280;67981;51.022;-2.870;2023-09-19T11:56:50;99988.78;;;18.64;100.00
78665;BME280;67981;51.022;-2.870;2023-09-19T11:59:27;99986.06;;;18.70;100.00
78665;BME280;67981;51.022;-2.870;2023-09-19T12:01:55;99993.16;;;18.62;100.00
78665;BME280;67981;51.022;-2.870;2023-09-19T12:04:36;100010.63;;;18.62;100.00
78665;BME280;67981;51.022;-2.870;2023-09-19T12:07:11;99997.56;;;18.62;99.99
78665;BME280;67981;51.022;-2.870;2023-09-19T12:09:48;99996.75;;;18.58;100.00
78665;BME280;67981;51.022;-2.870;2023-09-19T12:12:23;100004.63;;;18.57;100.00
78665;BME280;67981;51.022;-2.870;2023-09-19T12:14:49;100002.03;;;18.55;100.00
78665;BME280;67981;51.022;-2.870;2023-09-19T12:17:16;100011.63;;;18.53;100.00
78665;BME280;67981;51.022;-2.870;2023-09-19T12:19:53;100009.06;;;18.52;100.00
78665;BME280;67981;51.022;-2.870;2023-09-19T12:22:19;100020.41;;;18.51;100.00
78665;BME280;67981;51.022;-2.870;2023-09-19T12:24:46;100017.69;;;18.57;100.00
78665;BME280;67981;51.022;-2.870;2023-09-19T12:27:12;100010.72;;;18.56;100.00
78665;BME280;67981;51.022;-2.870;2023-09-19T12:29:56;100007.34;;;18.51;100.00
78665;BME280;67981;51.022;-2.870;2023-09-19T12:32:34;99998.44;;;18.61;100.00
78665;BME280;67981;51.022;-2.870;2023-09-19T12:35:00;99983.78;;;18.52;100.00
78665;BME280;67981;51.022;-2.870;2023-09-19T12:37:32;99992.25;;;18.66;100.00
78665;BME280;67981;51.022;-2.870;2023-09-19T12:40:08;99999.69;;;18.87;99.61
78665;BME280;67981;51.022;-2.870;2023-09-19T12:42:47;99990.84;;;18.96;98.35
78665;BME280;67981;51.022;-2.870;2023-09-19T12:45:14;100000.28;;;19.01;97.57
78665;BME280;67981;51.022;-2.870;2023-09-19T12:47:40;100003.69;;;19.06;96.29
78665;BME280;67981;51.022;-2.870;2023-09-19T12:50:26;99962.78;;;19.04;95.26
78665;BME280;67981;51.022;-2.870;2023-09-19T12:52:55;99938.06;;;19.18;94.60
78665;BME280;67981;51.022;-2.870;2023-09-19T12:55:29;99947.63;;;19.19;93.81
78665;BME280;67981;51.022;-2.870;2023-09-19T13:00:37;99958.09;;;19.19;93.45
78665;BME280;67981;51.022;-2.870;2023-09-19T13:03:29;99974.50;;;19.29;94.10
78665;BME280;67981;51.022;-2.870;2023-09-19T13:08:28;99974.25;;;19.39;93.90
78665;BME280;67981;51.022;-2.870;2023-09-19T13:11:13;99977.25;;;19.62;93.95
78665;BME280;67981;51.022;-2.870;2023-09-19T13:13:49;99969.53;;;19.56;93.20
78665;BME280;67981;51.022;-2.870;2023-09-19T13:16:19;99955.53;;;19.57;92.62
78665;BME280;67981;51.022;-2.870;2023-09-19T13:18:50;99960.56;;;19.68;91.87
78665;BME280;67981;51.022;-2.870;2023-09-19T13:21:30;99960.09;;;19.88;91.58
78665;BME280;67981;51.022;-2.870;2023-09-19T13:24:24;99950.59;;;19.84;91.42
78665;BME280;67981;51.022;-2.870;2023-09-19T13:26:56;99951.38;;;19.87;90.33
78665;BME280;67981;51.022;-2.870;2023-09-19T13:29:22;99944.16;;;19.97;89.44
78665;BME280;67981;51.022;-2.870;2023-09-19T13:31:48;99939.88;;;19.93;88.76
78665;BME280;67981;51.022;-2.870;2023-09-19T13:34:15;99938.41;;;19.83;88.13
78665;BME280;67981;51.022;-2.870;2023-09-19T13:36:43;99936.31;;;19.97;87.73
78665;BME280;67981;51.022;-2.870;2023-09-19T13:39:09;99924.16;;;19.93;86.97